sensor_id;sensor_type;location;lat;lon;timestamp;pressure;altitude;pressure_sealevel;temperature;humidity
73558;BME280;61829;53.286;10.434;2024-02-21T00:00:08;101610.72;;;9.59;89.96
73558;BME280;61829;53.286;10.434;2024-02-21T00:03:15;101611.56;;;9.60;89.97
73558;BME280;61829;53.286;10.434;2024-02-21T00:05:59;101613.25;;;9.61;89.79
73558;BME280;61829;53.286;10.434;2024-02-21T00:08:44;101607.88;;;9.61;90.28
73558;BME280;61829;53.286;10.434;2024-02-21T00:11:28;101609.03;;;9.58;90.28
73558;BME280;61829;53.286;10.434;2024-02-21T00:14:14;101598.28;;;9.58;89.66
73558;BME280;61829;53.286;10.434;2024-02-21T00:17:00;101600.13;;;9.58;90.16
73558;BME280;61829;53.286;10.434;2024-02-21T00:19:50;101601.13;;;9.57;89.81
73558;BME280;61829;53.286;10.434;2024-02-21T00:22:35;101596.28;;;9.60;89.74
73558;BME280;61829;53.286;10.434;2024-02-21T00:25:19;101597.94;;;9.61;89.40
73558;BME280;61829;53.286;10.434;2024-02-21T00:28:11;101590.72;;;9.62;89.62
73558;BME280;61829;53.286;10.434;2024-02-21T00:30:56;101589.56;;;9.64;89.68
73558;BME280;61829;53.286;10.434;2024-02-21T00:33:40;101581.66;;;9.63;89.38
73558;BME280;61829;53.286;10.434;2024-02-21T00:36:25;101580.97;;;9.61;89.74
73558;BME280;61829;53.286;10.434;2024-02-21T00:39:10;101570.88;;;9.63;89.88
73558;BME280;61829;53.286;10.434;2024-02-21T00:41:54;101577.25;;;9.62;89.55
73558;BME280;61829;53.286;10.434;2024-02-21T00:44:39;101575.25;;;9.64;89.66
73558;BME280;61829;53.286;10.434;2024-02-21T00:47:23;101565.34;;;9.64;89.70
73558;BME280;61829;53.286;10.434;2024-02-21T00:50:08;101562.97;;;9.61;89.94
73558;BME280;61829;53.286;10.434;2024-02-21T00:52:53;101559.44;;;9.61;90.61
73558;BME280;61829;53.286;10.434;2024-02-21T00:55:38;101550.34;;;9.62;90.55
73558;BME280;61829;53.286;10.434;2024-02-21T00:58:23;101545.66;;;9.64;90.37
73558;BME280;61829;53.286;10.434;2024-02-21T01:01:08;101540.28;;;9.64;90.43
73558;BME280;61829;53.286;10.434;2024-02-21T01:03:52;101542.13;;;9.63;90.67
73558;BME280;61829;53.286;10.434;2024-02-21T01:06:40;101530.84;;;9.60;90.52
73558;BME280;61829;53.286;10.434;2024-02-21T01:09:27;101516.22;;;9.62;90.63
73558;BME280;61829;53.286;10.434;2024-02-21T01:12:11;101524.44;;;9.61;90.86
73558;BME280;61829;53.286;10.434;2024-02-21T01:14:57;101515.38;;;9.62;90.54
73558;BME280;61829;53.286;10.434;2024-02-21T01:17:41;101519.75;;;9.63;90.74
73558;BME280;61829;53.286;10.434;2024-02-21T01:20:26;101516.75;;;9.66;90.63
73558;BME280;61829;53.286;10.434;2024-02-21T01:23:11;101533.38;;;9.61;90.51
73558;BME280;61829;53.286;10.434;2024-02-21T01:25:55;101525.16;;;9.63;90.46
73558;BME280;61829;53.286;10.434;2024-02-21T01:28:40;101516.38;;;9.61;90.38
73558;BME280;61829;53.286;10.434;2024-02-21T01:31:24;101513.03;;;9.67;90.55
73558;BME280;61829;53.286;10.434;2024-02-21T01:34:10;101499.91;;;9.64;90.61
73558;BME280;61829;53.286;10.434;2024-02-21T01:36:54;101495.22;;;9.66;90.43
73558;BME280;61829;53.286;10.434;2024-02-21T01:39:39;101491.50;;;9.67;90.58
73558;BME280;61829;53.286;10.434;2024-02-21T01:42:23;101500.28;;;9.69;90.64
73558;BME280;61829;53.286;10.434;2024-02-21T01:45:08;101494.53;;;9.64;90.59
73558;BME280;61829;53.286;10.434;2024-02-21T01:47:53;101496.56;;;9.70;90.76
73558;BME280;61829;53.286;10.434;2024-02-21T01:50:38;101486.13;;;9.67;90.55
73558;BME280;61829;53.286;10.434;2024-02-21T01:53:29;101483.63;;;9.65;90.43
73558;BME280;61829;53.286;10.434;2024-02-21T01:56:14;101479.72;;;9.68;90.46
73558;BME280;61829;53.286;10.434;2024-02-21T01:58:59;101481.44;;;9.69;90.17
73558;BME280;61829;53.286;10.434;2024-02-21T02:01:46;101488.50;;;9.70;90.70
73558;BME280;61829;53.286;10.434;2024-02-21T02:04:30;101485.09;;;9.68;90.49
73558;BME280;61829;53.286;10.434;2024-02-21T02:07:16;101476.88;;;9.70;90.52
73558;BME280;61829;53.286;10.434;2024-02-21T02:10:00;101464.97;;;9.72;90.09
73558;BME280;61829;53.286;10.434;2024-02-21T02:12:45;101457.72;;;9.73;90.23
73558;BME280;61829;53.286;10.434;2024-02-21T02:15:49;101447.13;;;9.71;90.66
73558;BME280;61829;53.286;10.434;2024-02-21T02:18:34;101438.72;;;9.74;90.04
73558;BME280;61829;53.286;10.434;2024-02-21T02:21:29;101436.03;;;9.74;90.36
73558;BME280;61829;53.286;10.434;2024-02-21T02:24:14;101429.97;;;9.72;90.55
73558;BME280;61829;53.286;10.434;2024-02-21T02:26:59;101431.31;;;9.76;90.97
73558;BME280;61829;53.286;10.434;2024-02-21T02:29:43;101418.19;;;9.73;90.63
73558;BME280;61829;53.286;10.434;2024-02-21T02:32:28;101410.28;;;9.72;90.83
73558;BME280;61829;53.286;10.434;2024-02-21T02:35:13;101404.59;;;9.75;91.19
73558;BME280;61829;53.286;10.434;2024-02-21T02:38:00;101390.28;;;9.74;90.85
73558;BME280;61829;53.286;10.434;2024-02-21T02:40:45;101397.34;;;9.75;91.22
73558;BME280;61829;53.286;10.434;2024-02-21T02:43:29;101396.16;;;9.78;91.04
73558;BME280;61829;53.286;10.434;2024-02-21T02:46:16;101366.72;;;9.76;90.95
73558;BME280;61829;53.286;10.434;2024-02-21T02:49:12;101364.53;;;9.72;90.53
73558;BME280;61829;53.286;10.434;2024-02-21T02:51:57;101362.69;;;9.72;91.35
73558;BME280;61829;53.286;10.434;2024-02-21T02:54:41;101355.94;;;9.76;90.42
73558;BME280;61829;53.286;10.434;2024-02-21T02:57:26;101350.56;;;9.76;90.55
73558;BME280;61829;53.286;10.434;2024-02-21T03:00:11;101359.50;;;9.77;90.44
73558;BME280;61829;53.286;10.434;2024-02-21T03:02:57;101355.44;;;9.73;90.70
73558;BME280;61829;53.286;10.434;2024-02-21T03:05:51;101356.28;;;9.73;90.85
73558;BME280;61829;53.286;10.434;2024-02-21T03:08:35;101363.53;;;9.73;90.69
73558;BME280;61829;53.286;10.434;2024-02-21T03:11:19;101347.03;;;9.76;90.71
73558;BME280;61829;53.286;10.434;2024-02-21T03:14:04;101345.38;;;9.75;90.67
73558;BME280;61829;53.286;10.434;2024-02-21T03:16:51;101335.44;;;9.75;90.44
73558;BME280;61829;53.286;10.434;2024-02-21T03:19:36;101325.69;;;9.74;90.29
73558;BME280;61829;53.286;10.434;2024-02-21T03:22:21;101328.19;;;9.76;90.25
73558;BME280;61829;53.286;10.434;2024-02-21T03:25:07;101327.03;;;9.78;90.16
73558;BME280;61829;53.286;10.434;2024-02-21T03:27:51;101325.03;;;9.80;90.37
73558;BME280;61829;53.286;10.434;2024-02-21T03:30:36;101329.72;;;9.78;89.80
73558;BME280;61829;53.286;10.434;2024-02-21T03:33:21;101329.72;;;9.78;90.32
73558;BME280;61829;53.286;10.434;2024-02-21T03:36:13;101336.63;;;9.81;89.98
73558;BME280;61829;53.286;10.434;2024-02-21T03:38:58;101327.03;;;9.78;89.51
73558;BME280;61829;53.286;10.434;2024-02-21T03:41:43;101330.41;;;9.80;89.56
73558;BME280;61829;53.286;10.434;2024-02-21T03:44:27;101332.91;;;9.82;89.51
73558;BME280;61829;53.286;10.434;2024-02-21T03:47:13;101337.13;;;9.76;88.94
73558;BME280;61829;53.286;10.434;2024-02-21T03:49:57;101341.50;;;9.85;88.75
73558;BME280;61829;53.286;10.434;2024-02-21T03:52:43;101346.56;;;9.88;88.31
73558;BME280;61829;53.286;10.434;2024-02-21T03:55:28;101343.53;;;9.92;88.10
73558;BME280;61829;53.286;10.434;2024-02-21T03:58:13;101337.47;;;9.89;87.98
73558;BME280;61829;53.286;10.434;2024-02-21T04:01:00;101339.13;;;9.90;88.20
73558;BME280;61829;53.286;10.434;2024-02-21T04:03:48;101348.22;;;9.89;88.22
73558;BME280;61829;53.286;10.434;2024-02-21T04:06:32;101340.00;;;9.83;87.96
73558;BME280;61829;53.286;10.434;2024-02-21T04:09:17;101342.69;;;9.83;88.03
73558;BME280;61829;53.286;10.434;2024-02-21T04:12:02;101344.84;;;9.87;87.80
73558;BME280;61829;53.286;10.434;2024-02-21T04:14:48;101342.50;;;9.93;87.55
73558;BME280;61829;53.286;10.434;2024-02-21T04:17:33;101344.03;;;9.95;87.40
73558;BME280;61829;53.286;10.434;2024-02-21T04:20:17;101332.91;;;9.98;87.36
73558;BME280;61829;53.286;10.434;2024-02-21T04:23:01;101350.09;;;9.97;87.33
73558;BME280;61829;53.286;10.434;2024-02-21T04:26:12;101333.94;;;9.97;86.97
73558;BME280;61829;53.286;10.434;2024-02-21T04:28:58;101345.06;;;9.94;87.11
73558;BME280;61829;53.286;10.434;2024-02-21T04:31:42;101329.88;;;9.93;86.81
73558;BME280;61829;53.286;10.434;2024-02-21T04:34:27;101344.03;;;9.95;87.19
73558;BME280;61829;53.286;10.434;2024-02-21T04:37:12;101329.25;;;9.99;86.71
73558;BME280;61829;53.286;10.434;2024-02-21T04:39:56;101324.69;;;10.00;86.70
73558;BME280;61829;53.286;10.434;2024-02-21T04:42:41;101317.94;;;9.96;86.69
73558;BME280;61829;53.286;10.434;2024-02-21T04:45:25;101313.25;;;9.98;87.35
73558;BME280;61829;53.286;10.434;2024-02-21T04:48:10;101306.53;;;9.94;87.50
73558;BME280;61829;53.286;10.434;2024-02-21T04:50:55;101299.78;;;9.89;88.12
73558;BME280;61829;53.286;10.434;2024-02-21T04:53:39;101295.56;;;9.87;88.18
73558;BME280;61829;53.286;10.434;2024-02-21T04:56:24;101288.50;;;9.86;88.81
73558;BME280;61829;53.286;10.434;2024-02-21T04:59:09;101294.38;;;9.81;89.05
73558;BME280;61829;53.286;10.434;2024-02-21T05:01:54;101300.78;;;9.80;88.99
73558;BME280;61829;53.286;10.434;2024-02-21T05:04:38;101293.41;;;9.82;88.95
73558;BME280;61829;53.286;10.434;2024-02-21T05:07:24;101276.22;;;9.83;89.28
73558;BME280;61829;53.286;10.434;2024-02-21T05:10:20;101277.06;;;9.76;89.92
73558;BME280;61829;53.286;10.434;2024-02-21T05:13:08;101278.78;;;9.77;89.92
73558;BME280;61829;53.286;10.434;2024-02-21T05:15:53;101279.06;;;9.74;89.99
73558;BME280;61829;53.286;10.434;2024-02-21T05:18:38;101288.16;;;9.73;90.10
73558;BME280;61829;53.286;10.434;2024-02-21T05:21:23;101284.16;;;9.77;89.75
73558;BME280;61829;53.286;10.434;2024-02-21T05:24:14;101278.59;;;9.78;90.28
73558;BME280;61829;53.286;10.434;2024-02-21T05:27:08;101277.59;;;9.71;90.27
73558;BME280;61829;53.286;10.434;2024-02-21T05:29:53;101286.16;;;9.66;90.69
73558;BME280;61829;53.286;10.434;2024-02-21T05:32:38;101280.59;;;9.68;90.59
73558;BME280;61829;53.286;10.434;2024-02-21T05:35:29;101279.25;;;9.72;91.02
73558;BME280;61829;53.286;10.434;2024-02-21T05:38:13;101272.72;;;9.75;90.65
73558;BME280;61829;53.286;10.434;2024-02-21T05:41:04;101279.94;;;9.74;90.49
73558;BME280;61829;53.286;10.434;2024-02-21T05:43:49;101281.78;;;9.65;91.40
73558;BME280;61829;53.286;10.434;2024-02-21T05:46:34;101278.09;;;9.66;90.99
73558;BME280;61829;53.286;10.434;2024-02-21T05:49:19;101271.69;;;9.67;91.25
73558;BME280;61829;53.286;10.434;2024-02-21T05:52:04;101270.69;;;9.69;91.39
73558;BME280;61829;53.286;10.434;2024-02-21T05:54:50;101273.88;;;9.72;91.11
73558;BME280;61829;53.286;10.434;2024-02-21T05:57:35;101270.34;;;9.72;91.57
73558;BME280;61829;53.286;10.434;2024-02-21T06:00:20;101266.81;;;9.71;92.03
73558;BME280;61829;53.286;10.434;2024-02-21T06:03:05;101266.81;;;9.71;92.04
73558;BME280;61829;53.286;10.434;2024-02-21T06:05:49;101272.22;;;9.71;92.23
73558;BME280;61829;53.286;10.434;2024-02-21T06:08:34;101263.94;;;9.64;92.49
73558;BME280;61829;53.286;10.434;2024-02-21T06:11:25;101273.88;;;9.64;92.26
73558;BME280;61829;53.286;10.434;2024-02-21T06:14:39;101267.13;;;9.68;92.46
73558;BME280;61829;53.286;10.434;2024-02-21T06:17:23;101262.78;;;9.67;92.48
73558;BME280;61829;53.286;10.434;2024-02-21T06:20:08;101272.84;;;9.65;92.47
73558;BME280;61829;53.286;10.434;2024-02-21T06:22:54;101269.66;;;9.61;92.49
73558;BME280;61829;53.286;10.434;2024-02-21T06:25:39;101269.19;;;9.66;92.52
73558;BME280;61829;53.286;10.434;2024-02-21T06:28:24;101276.75;;;9.62;92.92
73558;BME280;61829;53.286;10.434;2024-02-21T06:31:10;101266.16;;;9.69;92.45
73558;BME280;61829;53.286;10.434;2024-02-21T06:33:54;101273.88;;;9.72;92.51
73558;BME280;61829;53.286;10.434;2024-02-21T06:36:41;101272.22;;;9.71;92.36
73558;BME280;61829;53.286;10.434;2024-02-21T06:39:26;101270.34;;;9.72;92.49
73558;BME280;61829;53.286;10.434;2024-02-21T06:42:11;101274.22;;;9.69;92.04
73558;BME280;61829;53.286;10.434;2024-02-21T06:44:56;101273.19;;;9.70;92.65
73558;BME280;61829;53.286;10.434;2024-02-21T06:47:41;101276.06;;;9.69;93.12
73558;BME280;61829;53.286;10.434;2024-02-21T06:50:28;101262.44;;;9.70;92.78
73558;BME280;61829;53.286;10.434;2024-02-21T06:53:13;101269.00;;;9.67;93.00
73558;BME280;61829;53.286;10.434;2024-02-21T06:55:57;101278.09;;;9.66;93.86
73558;BME280;61829;53.286;10.434;2024-02-21T06:58:42;101270.00;;;9.66;94.08
73558;BME280;61829;53.286;10.434;2024-02-21T07:01:27;101276.22;;;9.67;94.23
73558;BME280;61829;53.286;10.434;2024-02-21T07:04:11;101264.63;;;9.66;94.07
73558;BME280;61829;53.286;10.434;2024-02-21T07:06:56;101262.63;;;9.69;94.70
73558;BME280;61829;53.286;10.434;2024-02-21T07:09:40;101265.97;;;9.71;94.50
73558;BME280;61829;53.286;10.434;2024-02-21T07:12:26;101271.19;;;9.72;94.54
73558;BME280;61829;53.286;10.434;2024-02-21T07:15:12;101272.50;;;9.68;94.89
73558;BME280;61829;53.286;10.434;2024-02-21T07:17:57;101275.72;;;9.72;94.56
73558;BME280;61829;53.286;10.434;2024-02-21T07:20:41;101282.44;;;9.76;94.58
73558;BME280;61829;53.286;10.434;2024-02-21T07:23:26;101284.16;;;9.77;94.75
73558;BME280;61829;53.286;10.434;2024-02-21T07:26:14;101279.59;;;9.77;94.73
73558;BME280;61829;53.286;10.434;2024-02-21T07:28:58;101287.00;;;9.83;94.38
73558;BME280;61829;53.286;10.434;2024-02-21T07:31:43;101297.09;;;9.81;94.35
73558;BME280;61829;53.286;10.434;2024-02-21T07:34:29;101301.47;;;9.82;94.29
73558;BME280;61829;53.286;10.434;2024-02-21T07:37:21;101301.13;;;9.85;94.66
73558;BME280;61829;53.286;10.434;2024-02-21T07:40:12;101294.59;;;9.88;94.55
73558;BME280;61829;53.286;10.434;2024-02-21T07:42:57;101296.41;;;9.87;94.55
73558;BME280;61829;53.286;10.434;2024-02-21T07:45:41;101297.75;;;9.92;94.27
73558;BME280;61829;53.286;10.434;2024-02-21T07:48:26;101296.25;;;9.97;94.01
73558;BME280;61829;53.286;10.434;2024-02-21T07:51:10;101295.06;;;10.00;94.12
73558;BME280;61829;53.286;10.434;2024-02-21T07:53:55;101299.44;;;10.01;94.23
73558;BME280;61829;53.286;10.434;2024-02-21T07:56:40;101288.81;;;10.07;94.04
73558;BME280;61829;53.286;10.434;2024-02-21T07:59:26;101285.97;;;10.09;93.72
73558;BME280;61829;53.286;10.434;2024-02-21T08:02:10;101286.31;;;10.14;93.13
73558;BME280;61829;53.286;10.434;2024-02-21T08:04:55;101279.06;;;10.15;93.41
73558;BME280;61829;53.286;10.434;2024-02-21T08:07:41;101281.56;;;10.16;93.16
73558;BME280;61829;53.286;10.434;2024-02-21T08:10:25;101287.81;;;10.17;92.82
73558;BME280;61829;53.286;10.434;2024-02-21T08:13:10;101284.25;;;10.16;92.76
73558;BME280;61829;53.286;10.434;2024-02-21T08:15:54;101282.72;;;10.22;92.80
73558;BME280;61829;53.286;10.434;2024-02-21T08:18:38;101286.63;;;10.27;92.74
73558;BME280;61829;53.286;10.434;2024-02-21T08:21:23;101277.88;;;10.33;92.03
73558;BME280;61829;53.286;10.434;2024-02-21T08:24:07;101278.72;;;10.34;91.75
73558;BME280;61829;53.286;10.434;2024-02-21T08:26:52;101283.28;;;10.33;91.37
73558;BME280;61829;53.286;10.434;2024-02-21T08:29:36;101272.78;;;10.39;91.26
73558;BME280;61829;53.286;10.434;2024-02-21T08:32:21;101281.41;;;10.42;90.83
73558;BME280;61829;53.286;10.434;2024-02-21T08:35:06;101269.56;;;10.51;90.79
73558;BME280;61829;53.286;10.434;2024-02-21T08:37:51;101268.25;;;10.47;90.13
73558;BME280;61829;53.286;10.434;2024-02-21T08:40:35;101260.47;;;10.52;90.08
73558;BME280;61829;53.286;10.434;2024-02-21T08:43:21;101262.44;;;10.59;90.17
73558;BME280;61829;53.286;10.434;2024-02-21T08:46:05;101259.25;;;10.63;90.06
73558;BME280;61829;53.286;10.434;2024-02-21T08:48:51;101258.91;;;10.66;89.33
73558;BME280;61829;53.286;10.434;2024-02-21T08:51:46;101264.09;;;10.76;89.42
73558;BME280;61829;53.286;10.434;2024-02-21T08:54:33;101266.13;;;10.74;89.02
73558;BME280;61829;53.286;10.434;2024-02-21T08:57:18;101261.19;;;10.77;88.32
73558;BME280;61829;53.286;10.434;2024-02-21T09:00:06;101258.00;;;10.82;88.43
73558;BME280;61829;53.286;10.434;2024-02-21T09:02:59;101253.75;;;10.88;87.77
73558;BME280;61829;53.286;10.434;2024-02-21T09:05:44;101261.47;;;10.91;87.79
73558;BME280;61829;53.286;10.434;2024-02-21T09:08:28;101261.97;;;10.94;88.08
73558;BME280;61829;53.286;10.434;2024-02-21T09:11:13;101251.00;;;10.96;88.12
73558;BME280;61829;53.286;10.434;2024-02-21T09:13:57;101265.66;;;11.01;87.53
73558;BME280;61829;53.286;10.434;2024-02-21T09:16:42;101262.75;;;11.03;87.52
73558;BME280;61829;53.286;10.434;2024-02-21T09:19:26;101262.03;;;11.09;87.28
73558;BME280;61829;53.286;10.434;2024-02-21T09:22:10;101254.75;;;11.18;86.98
73558;BME280;61829;53.286;10.434;2024-02-21T09:24:55;101253.06;;;11.17;86.85
73558;BME280;61829;53.286;10.434;2024-02-21T09:27:40;101258.66;;;11.15;86.43
73558;BME280;61829;53.286;10.434;2024-02-21T09:30:24;101263.34;;;11.21;86.55
73558;BME280;61829;53.286;10.434;2024-02-21T09:33:08;101260.94;;;11.27;86.46
73558;BME280;61829;53.286;10.434;2024-02-21T09:35:53;101257.03;;;11.29;86.44
73558;BME280;61829;53.286;10.434;2024-02-21T09:38:40;101253.97;;;11.32;86.54
73558;BME280;61829;53.286;10.434;2024-02-21T09:41:26;101253.97;;;11.32;86.15
73558;BME280;61829;53.286;10.434;2024-02-21T09:44:14;101254.16;;;11.31;85.73
73558;BME280;61829;53.286;10.434;2024-02-21T09:47:10;101258.88;;;11.29;86.29
73558;BME280;61829;53.286;10.434;2024-02-21T09:49:58;101248.47;;;11.26;86.32
73558;BME280;61829;53.286;10.434;2024-02-21T09:52:44;101245.81;;;11.17;86.15
73558;BME280;61829;53.286;10.434;2024-02-21T09:55:33;101248.91;;;11.06;86.68
73558;BME280;61829;53.286;10.434;2024-02-21T09:58:18;101242.38;;;11.00;86.67
73558;BME280;61829;53.286;10.434;2024-02-21T10:01:05;101240.28;;;10.88;87.69
73558;BME280;61829;53.286;10.434;2024-02-21T10:03:51;101244.19;;;10.77;88.17
73558;BME280;61829;53.286;10.434;2024-02-21T10:06:36;101232.09;;;10.73;88.55
73558;BME280;61829;53.286;10.434;2024-02-21T10:09:26;101242.00;;;10.72;88.85
73558;BME280;61829;53.286;10.434;2024-02-21T10:12:12;101241.66;;;10.75;89.08
73558;BME280;61829;53.286;10.434;2024-02-21T10:15:04;101247.41;;;10.72;89.21
73558;BME280;61829;53.286;10.434;2024-02-21T10:18:00;101240.69;;;10.68;88.43
73558;BME280;61829;53.286;10.434;2024-02-21T10:20:45;101242.22;;;10.71;88.90
73558;BME280;61829;53.286;10.434;2024-02-21T10:23:43;101240.69;;;10.68;88.65
73558;BME280;61829;53.286;10.434;2024-02-21T10:26:28;101227.91;;;10.70;88.43
73558;BME280;61829;53.286;10.434;2024-02-21T10:29:12;101236.63;;;10.72;87.93
73558;BME280;61829;53.286;10.434;2024-02-21T10:32:07;101230.56;;;10.78;87.77
73558;BME280;61829;53.286;10.434;2024-02-21T10:35:01;101234.22;;;10.86;88.12
73558;BME280;61829;53.286;10.434;2024-02-21T10:37:49;101238.22;;;10.90;87.26
73558;BME280;61829;53.286;10.434;2024-02-21T10:40:35;101228.25;;;10.98;86.79
73558;BME280;61829;53.286;10.434;2024-02-21T10:43:20;101232.25;;;11.02;86.71
73558;BME280;61829;53.286;10.434;2024-02-21T10:46:08;101220.75;;;11.09;86.41
73558;BME280;61829;53.286;10.434;2024-02-21T10:49:09;101226.47;;;11.14;85.79
73558;BME280;61829;53.286;10.434;2024-02-21T10:57:31;101221.13;;;11.29;84.06
73558;BME280;61829;53.286;10.434;2024-02-21T11:00:17;101209.25;;;11.38;84.07
73558;BME280;61829;53.286;10.434;2024-02-21T11:03:03;101199.94;;;11.40;83.17
73558;BME280;61829;53.286;10.434;2024-02-21T11:05:51;101196.59;;;11.38;82.20
73558;BME280;61829;53.286;10.434;2024-02-21T11:08:36;101190.47;;;11.44;82.04
73558;BME280;61829;53.286;10.434;2024-02-21T11:11:23;101183.88;;;11.47;81.78
73558;BME280;61829;53.286;10.434;2024-02-21T11:14:18;101191.78;;;11.49;81.07
73558;BME280;61829;53.286;10.434;2024-02-21T11:17:14;101187.22;;;11.49;80.74
73558;BME280;61829;53.286;10.434;2024-02-21T11:20:11;101185.97;;;11.37;80.34
73558;BME280;61829;53.286;10.434;2024-02-21T11:23:00;101193.63;;;11.33;80.79
73558;BME280;61829;53.286;10.434;2024-02-21T11:25:46;101183.28;;;11.37;80.57
73558;BME280;61829;53.286;10.434;2024-02-21T11:28:32;101184.25;;;11.44;80.20
73558;BME280;61829;53.286;10.434;2024-02-21T11:31:17;101188.50;;;11.38;80.23
73558;BME280;61829;53.286;10.434;2024-02-21T11:34:03;101182.16;;;11.31;80.21
73558;BME280;61829;53.286;10.434;2024-02-21T11:36:52;101184.91;;;11.23;80.61
73558;BME280;61829;53.286;10.434;2024-02-21T11:39:37;101176.81;;;11.23;80.99
73558;BME280;61829;53.286;10.434;2024-02-21T11:42:27;101176.34;;;11.19;81.08
73558;BME280;61829;53.286;10.434;2024-02-21T11:45:15;101172.81;;;11.19;81.43
73558;BME280;61829;53.286;10.434;2024-02-21T11:48:00;101166.94;;;11.15;81.94
73558;BME280;61829;53.286;10.434;2024-02-21T11:50:55;101164.78;;;11.11;82.07
73558;BME280;61829;53.286;10.434;2024-02-21T11:53:40;101167.66;;;11.09;82.32
73558;BME280;61829;53.286;10.434;2024-02-21T11:56:27;101163.81;;;11.04;82.26
73558;BME280;61829;53.286;10.434;2024-02-21T11:59:11;101162.97;;;11.03;82.80
73558;BME280;61829;53.286;10.434;2024-02-21T12:01:56;101154.06;;;11.02;83.10
73558;BME280;61829;53.286;10.434;2024-02-21T12:04:43;101140.09;;;10.99;83.15
73558;BME280;61829;53.286;10.434;2024-02-21T12:07:28;101132.66;;;11.01;83.19
73558;BME280;61829;53.286;10.434;2024-02-21T12:10:13;101136.84;;;11.04;83.62
73558;BME280;61829;53.286;10.434;2024-02-21T12:13:08;101129.31;;;10.99;83.05
73558;BME280;61829;53.286;10.434;2024-02-21T12:15:53;101126.41;;;11.00;83.05
73558;BME280;61829;53.286;10.434;2024-02-21T12:18:39;101120.56;;;10.97;82.20
73558;BME280;61829;53.286;10.434;2024-02-21T12:21:25;101115.88;;;10.91;82.06
73558;BME280;61829;53.286;10.434;2024-02-21T12:24:16;101118.38;;;10.92;82.20
73558;BME280;61829;53.286;10.434;2024-02-21T12:27:01;101118.88;;;10.96;81.72
73558;BME280;61829;53.286;10.434;2024-02-21T12:29:48;101120.09;;;10.93;81.72
73558;BME280;61829;53.286;10.434;2024-02-21T12:32:32;101118.22;;;10.94;81.88
73558;BME280;61829;53.286;10.434;2024-02-21T12:35:16;101118.38;;;10.92;81.13
73558;BME280;61829;53.286;10.434;2024-02-21T12:38:02;101115.53;;;10.94;81.32
73558;BME280;61829;53.286;10.434;2024-02-21T12:40:46;101101.69;;;10.97;81.11
73558;BME280;61829;53.286;10.434;2024-02-21T12:43:30;101097.59;;;11.01;80.96
73558;BME280;61829;53.286;10.434;2024-02-21T12:46:15;101102.44;;;11.06;80.54
73558;BME280;61829;53.286;10.434;2024-02-21T12:49:03;101094.56;;;11.04;80.36
73558;BME280;61829;53.286;10.434;2024-02-21T12:51:48;101090.00;;;11.05;79.99
73558;BME280;61829;53.286;10.434;2024-02-21T12:54:33;101089.44;;;11.09;80.20
73558;BME280;61829;53.286;10.434;2024-02-21T12:57:18;101085.53;;;11.12;79.27
73558;BME280;61829;53.286;10.434;2024-02-21T13:00:03;101082.31;;;11.16;79.18
73558;BME280;61829;53.286;10.434;2024-02-21T13:02:48;101078.78;;;11.16;78.59
73558;BME280;61829;53.286;10.434;2024-02-21T13:05:32;101066.13;;;11.16;77.99
73558;BME280;61829;53.286;10.434;2024-02-21T13:08:17;101070.47;;;11.17;77.69
73558;BME280;61829;53.286;10.434;2024-02-21T13:11:02;101060.34;;;11.19;77.75
73558;BME280;61829;53.286;10.434;2024-02-21T13:13:46;101070.97;;;11.21;77.18
73558;BME280;61829;53.286;10.434;2024-02-21T13:16:31;101065.59;;;11.21;76.73
73558;BME280;61829;53.286;10.434;2024-02-21T13:19:17;101058.78;;;11.25;77.27
73558;BME280;61829;53.286;10.434;2024-02-21T13:22:07;101055.53;;;11.30;77.23
73558;BME280;61829;53.286;10.434;2024-02-21T13:24:54;101051.44;;;11.34;76.90
73558;BME280;61829;53.286;10.434;2024-02-21T13:27:39;101044.09;;;11.42;76.21
73558;BME280;61829;53.286;10.434;2024-02-21T13:30:23;101035.25;;;11.49;76.06
73558;BME280;61829;53.286;10.434;2024-02-21T13:33:09;101035.16;;;11.57;75.34
73558;BME280;61829;53.286;10.434;2024-02-21T13:35:54;101036.28;;;11.62;75.37
73558;BME280;61829;53.286;10.434;2024-02-21T13:38:48;101014.91;;;11.61;74.52
73558;BME280;61829;53.286;10.434;2024-02-21T13:41:33;101007.44;;;11.63;74.46
73558;BME280;61829;53.286;10.434;2024-02-21T13:44:18;101013.47;;;11.65;73.26
73558;BME280;61829;53.286;10.434;2024-02-21T13:47:03;101000.81;;;11.65;73.32
73558;BME280;61829;53.286;10.434;2024-02-21T13:49:48;100991.34;;;11.69;73.10
73558;BME280;61829;53.286;10.434;2024-02-21T13:52:32;100983.41;;;11.68;72.67
73558;BME280;61829;53.286;10.434;2024-02-21T13:55:18;100979.13;;;11.74;72.11
73558;BME280;61829;53.286;10.434;2024-02-21T13:58:02;100972.34;;;11.78;71.93
73558;BME280;61829;53.286;10.434;2024-02-21T14:00:48;100962.38;;;11.78;71.44
73558;BME280;61829;53.286;10.434;2024-02-21T14:03:32;100945.50;;;11.76;70.74
73558;BME280;61829;53.286;10.434;2024-02-21T14:06:17;100937.84;;;11.80;70.93
73558;BME280;61829;53.286;10.434;2024-02-21T14:09:01;100926.69;;;11.83;70.96
73558;BME280;61829;53.286;10.434;2024-02-21T14:11:47;100919.91;;;11.87;70.46
73558;BME280;61829;53.286;10.434;2024-02-21T14:14:31;100922.78;;;11.85;70.52
73558;BME280;61829;53.286;10.434;2024-02-21T14:17:17;100910.59;;;11.89;70.72
73558;BME280;61829;53.286;10.434;2024-02-21T14:20:02;100896.44;;;11.87;69.83
73558;BME280;61829;53.286;10.434;2024-02-21T14:22:49;100892.09;;;11.86;68.85
73558;BME280;61829;53.286;10.434;2024-02-21T14:25:33;100884.44;;;11.90;68.81
73558;BME280;61829;53.286;10.434;2024-02-21T14:28:18;100882.16;;;11.94;69.26